Terminal Aerodrome Forecast
Issued by NWS

Home | Current Version | Previous Version | Text Only | Print | Product List | Glossary On
Versions: 1 2 3 4 5 6 7 8 9 10 11 12 13 14 15 16 17 18 19 20 21 22 23 24
000
FTUS46 KEKA 040545
TAFCEC
TAF
KCEC 040545Z 0406/0506 VRB03KT 2SM BR OVC004
      TEMPO 0406/0408 VRB03KT 6SM BR FEW004
     FM042000 21007KT P6SM FEW004
     FM050300 VRB03KT 5SM BR OVC002=

USA.gov is the U.S. government's official web portal to all federal, state and local government web resources and services.